Sovereign — MNNU8 — position and weather

sailwx.info

Track history (hours):
 
Tides and Currents Weather Stations Pressure Air Temp Water Temp Dewpoint Dewpoint Depression Visibility Wind Speed Wind Dir Waves Ship Positions

Sovereign

Last reported at 2018-Feb-20 21:52 UTC. Time now 2018-Feb-21 11:24 UTC.
Position N 50°32' W 002°14'.

Length 131 m; draft 6 m.

Type: Other ship. MMSI: 232892000.

Date/timePositionNaut miles runAvg speedWind from/ knotsBaromVisibWave heightAir tempDewpointWater temp
2018-Feb-20 21:52N 50°32' W 002°14'4 0.3
2018-Feb-20 09:21N 50°33' W 002°20'4 5.6
2018-Feb-20 08:38N 50°34' W 002°26'  
2018-Feb-17 20:08N 50°34' W 002°26'  
2018-Feb-14 22:43N 50°34' W 002°26'0 0.0
2018-Feb-13 13:20N 50°34' W 002°26'0 0.3
2018-Feb-13 13:00N 50°34' W 002°25'3 3.5
2018-Feb-13 12:17N 50°34' W 002°22'9 4.5
2018-Feb-13 10:13N 50°25' W 002°26'1 3.3
2018-Feb-13 09:59N 50°25' W 002°27'2 3.5
2018-Feb-13 09:18N 50°24' W 002°30'1 3.8
2018-Feb-13 08:56N 50°24' W 002°32'2 4.2
2018-Feb-13 08:27N 50°23' W 002°35'2 4.6
2018-Feb-13 08:00N 50°22' W 002°38'2 4.9
2018-Feb-13 07:30N 50°21' W 002°42'3 5.0
2018-Feb-13 07:00N 50°20' W 002°45'3 5.2
2018-Feb-13 06:27N 50°18' W 002°49'2 5.2
2018-Feb-13 06:01N 50°17' W 002°52'3 5.2
2018-Feb-13 05:30N 50°16' W 002°56'3 5.2
2018-Feb-13 04:59N 50°14' W 002°59'3 5.3
2018-Feb-13 04:30N 50°13' W 003°03'3 5.3
2018-Feb-13 04:00N 50°12' W 003°06'3 5.2
2018-Feb-13 03:31N 50°10' W 003°10'3 5.4
2018-Feb-13 03:00N 50°09' W 003°13'3 5.3
2018-Feb-13 02:30N 50°08' W 003°17'3 5.2
2018-Feb-13 02:00N 50°06' W 003°20'2 4.9
2018-Feb-13 01:30N 50°05' W 003°24'2 5.0
2018-Feb-13 01:00N 50°04' W 003°27'2 4.7
2018-Feb-13 00:30N 50°03' W 003°30'2 4.7
2018-Feb-13 00:00N 50°02' W 003°33'2 4.9
2018-Feb-12 23:30N 50°00' W 003°37'3 5.0
2018-Feb-12 23:00N 49°59' W 003°40'3 5.0
2018-Feb-12 22:30N 49°58' W 003°43'  
Track history (hours):
 
Tides and Currents Weather Stations Pressure Air Temp Water Temp Dewpoint Dewpoint Depression Visibility Wind Speed Wind Dir Waves Ship Positions

Sovereign

Last reported at 2018-Feb-20 21:52 UTC. Time now 2018-Feb-21 11:24 UTC.
Position N 50°32' W 002°14'.

Length 131 m; draft 6 m.

Type: Other ship. MMSI: 232892000.

Date/timePositionNaut miles runAvg speedWind from/ knotsBaromVisibWave heightAir tempDewpointWater temp
2018-Feb-20 21:52N 50°32' W 002°14'4 0.3
2018-Feb-20 09:21N 50°33' W 002°20'4 5.6
2018-Feb-20 08:38N 50°34' W 002°26'  
2018-Feb-17 20:08N 50°34' W 002°26'  
2018-Feb-14 22:43N 50°34' W 002°26'0 0.0
2018-Feb-13 13:20N 50°34' W 002°26'0 0.3
2018-Feb-13 13:00N 50°34' W 002°25'3 3.5
2018-Feb-13 12:17N 50°34' W 002°22'9 4.5
2018-Feb-13 10:13N 50°25' W 002°26'1 3.3
2018-Feb-13 09:59N 50°25' W 002°27'2 3.5
2018-Feb-13 09:18N 50°24' W 002°30'1 3.8
2018-Feb-13 08:56N 50°24' W 002°32'2 4.2
2018-Feb-13 08:27N 50°23' W 002°35'2 4.6
2018-Feb-13 08:00N 50°22' W 002°38'2 4.9
2018-Feb-13 07:30N 50°21' W 002°42'3 5.0
2018-Feb-13 07:00N 50°20' W 002°45'3 5.2
2018-Feb-13 06:27N 50°18' W 002°49'2 5.2
2018-Feb-13 06:01N 50°17' W 002°52'3 5.2
2018-Feb-13 05:30N 50°16' W 002°56'3 5.2
2018-Feb-13 04:59N 50°14' W 002°59'3 5.3
2018-Feb-13 04:30N 50°13' W 003°03'3 5.3
2018-Feb-13 04:00N 50°12' W 003°06'3 5.2
2018-Feb-13 03:31N 50°10' W 003°10'3 5.4
2018-Feb-13 03:00N 50°09' W 003°13'3 5.3
2018-Feb-13 02:30N 50°08' W 003°17'3 5.2
2018-Feb-13 02:00N 50°06' W 003°20'2 4.9
2018-Feb-13 01:30N 50°05' W 003°24'2 5.0
2018-Feb-13 01:00N 50°04' W 003°27'2 4.7
2018-Feb-13 00:30N 50°03' W 003°30'2 4.7
2018-Feb-13 00:00N 50°02' W 003°33'2 4.9
2018-Feb-12 23:30N 50°00' W 003°37'3 5.0
2018-Feb-12 23:00N 49°59' W 003°40'3 5.0
2018-Feb-12 22:30N 49°58' W 003°43'  

Dump ship's entire track history